AirNav   Air Wisconsin Up To $57,000 Bonus
 
 803 users online  

CL35 Warner Springs Gliderport
Warner Springs, California, USA

GOING TO WARNER SPRINGS?


FAA INFORMATION EFFECTIVE 25 FEBRUARY 2021

Location

FAA Identifier: CL35
Lat/Long: 33-17-04.2100N 116-40-10.7650W
33-17.070167N 116-40.179417W
33.2845028,-116.6696569
(estimated)
Elevation: 2880 ft. / 878 m (estimated)
Variation: 13E (1985)
From city: 2 miles E of WARNER SPRINGS, CA
Time zone: UTC -8 (UTC -7 during Daylight Saving Time)
Zip code: 92086

Gliderport Operations

Gliderport use: Private use. Permission required prior to landing
Activation date: 10/1984
Control tower: no
ARTCC: LOS ANGELES CENTER
FSS: SAN DIEGO FLIGHT SERVICE STATION
Attendance: 0900-1700
Wind indicator: yes
Segmented circle: yes
Landing fee: yes

Gliderport Communications

UNICOM: 122.8
WX AWOS-3P at L08 (18 nm E): 126.575 (760-767-3308)
WX ASOS at RNM (19 nm SW): PHONE 760-789-7699

Nearby radio navigation aids

VOR radial/distance  VOR name  Freq  Var
JLIr319/9.6JULIAN VORTAC114.0015E
TRMr218/32.8THERMAL VORTAC116.2013E
PSPr186/37.1PALM SPRINGS VORTAC115.5013E
OCNr071/37.6OCEANSIDE VORTAC115.3015E
HDFr125/(39.2)HOMELAND VOR113.4014E

Gliderport Services

Runway Information

Runway 8/26

Dimensions: 3500 x 70 ft. / 1067 x 21 m
Surface: asphalt
RUNWAY 8  RUNWAY 26
Latitude: 33-17.060333N33-17.080000N
Longitude: 116-40.522667W116-39.836167W
Elevation: 2873.0 ft.2914.0 ft.
Traffic pattern: leftleft
Obstructions: none200 ft. hill, 5200 ft. from runway

Gliderport Ownership and Management from official FAA records

Ownership: Privately-owned
Owner: WARNER SPRINGS RANCH RESORT, LLC
31930 HWY 79
WARNER SPRINGS, CA 92086
Phone 760-782-4200
SKY SAILING 31930 HWY 79.
Manager: BRET WILLAT
SKY SAILING 31930 HWY 79
WARNER SPRINGS, CA 92086
Phone 760-782-0404
LEASEE.

Gliderport Operational Statistics

Aircraft based on the field: 80
Single engine airplanes: 10
Gliders airplanes: 70
    

Additional Remarks

FOR CD CTC LOS ANGELES ARTCC AT 661-575-2079.

Instrument Procedures

There are no published instrument procedures at CL35.

Some nearby airports with instrument procedures:

L08 - Borrego Valley Airport (18 nm E)
KRNM - Ramona Airport (19 nm SW)
F70 - French Valley Airport (29 nm NW)
L18 - Fallbrook Community Airpark (29 nm W)
KSEE - Gillespie Field Airport (31 nm SW)
 
Loc | Ops | Rwys | IFR | FBO | Links
Com | Nav | Svcs | Stats | Notes
Area around CL35 (Warner Springs Gliderport)
 
Road maps at: MapQuest Bing Google
 
Aerial photo
WARNING: Photo may not be current or correct
Aerial photo of CL35 (Warner Springs Gliderport)
Photo by Steve Lupinacci
Photo taken 27-May-2008

Do you have a better or more recent aerial photo of Warner Springs Gliderport that you would like to share? If so, please send us your photo.

 
Sectional chart

 
Airport distance calculator
Flying to Warner Springs Gliderport? Find the distance to fly.

From to CL35

Sunrise and sunset
Times for 03-Mar-2021
 Local
(UTC-8)
 Zulu
(UTC)
Morning civil twilight05:4913:49
Sunrise06:1314:13
Sunset17:4401:44
Evening civil twilight18:0902:09

Current date and time
Zulu (UTC)  04-Mar-2021 03:50:29
Local (UTC-8)  03-Mar-2021 19:50:29
 
METAR
KL08 
18nm E 
040335Z AUTO 26003KT 10SM FEW037 SCT046 BKN060 10/08 A2995 RMK AO2
KRNM 
20nm SW 
040302Z 12004KT 10SM BKN012 OVC018 09/09 A2994 RMK AO2 T00890089
KF70 
29nm NW 
040335Z AUTO 00000KT 7SM OVC022 08/07 A2996 RMK AO1
KL18 
29nm W 
040335Z AUTO 01005KT 10SM BKN016 OVC023 09/08 A2997 RMK AO2
KSEE 
32nm SW 
040335Z AUTO 17008KT 10SM BKN011 BKN016 OVC050 12/11 A2995 RMK AO2
KCRQ 
32nm W 
040253Z 07006KT 6SM -RA BR BKN020 OVC026 11/09 A2993 RMK AO2 RAB53 SLP134 P0000 60013 T01110094 53019
KHMT 
32nm NW 
040335Z AUTO 00000KT 10SM OVC046 07/07 A2995 RMK AO2 T00710071
KTRM 
33nm NE 
040252Z AUTO 12004KT 10SM SCT090 13/06 A2992 RMK AO2 RAE0155 SLP132 P0000 60001 T01280056 53020
KPSP 
33nm N 
040253Z 20004KT 10SM SCT060 OVC075 14/03 A2993 RMK AO2 SLP136 T01390028 53017 $
KNFG 
33nm W 
040311Z AUTO 05005KT 7SM -RA OVC028 12/08 A2995 RMK AO2 PK WND 03027/0257 RAB0257 P0000 T01170083
TAF
KCRQ 
32nm W 
031740Z 0318/0418 18014G22KT P6SM -RA VCTS BKN020CB BKN040 FM032200 21010KT P6SM -SHRA VCTS BKN025CB BKN040 FM040300 VRB05KT P6SM VCSH SCT025 BKN040 FM040600 VRB04KT P6SM SCT025 BKN035 FM041100 VRB04KT P6SM SCT020
KTRM 
33nm NE 
030540Z 0306/0406 VRB04KT P6SM SKC FM031600 14008KT P6SM SCT090 FM032100 15012G20KT P6SM VCSH BKN080 FM040100 33012G20KT P6SM VCSH BKN080
KPSP 
33nm N 
031740Z 0318/0418 33005KT P6SM BKN080 FM032000 08014KT P6SM VCSH SCT050 BKN070 TEMPO 0320/0324 -SHRA BKN040 FM040000 33012G20KT P6SM SCT040 BKN070 FM040400 33004KT P6SM SCT070
KNFG 
33nm W 
0321/0421 03010KT 8000 VCSH BR BKN012 QNH2984INS TEMPO 0321/0400 6000 -SHRA BR FM040230 VRB05KT 9999 VCSH BKN015 QNH2990INS BECMG 0404/0406 VRB05KT 9999 BKN030 QNH3001INS FM041900 21008KT 9999 SCT025 QNH3020INS T19/0320Z T01/0411Z
KNKX 
34nm SW 
0321/0421 25009KT 9999 SCT030 BKN060 640709 641602 542409 543305 QNH2983INS TEMPO 0321/0401 22015G20KT 6000 TSRA BR BKN020 OVC035 FM040330 VRB05KT 9999 NSW BKN020 QNH2988INS 640709 641602 542409 543305 BECMG 0413/0415 VRB05KT 9999 SCT025 QNH2995INS T08/0414Z T16/0420Z
NOTAMs
Click for the latest NOTAMs
NOTAMs are issued by the DoD/FAA and will open in a separate window not controlled by AirNav.

 

 
 

Would you like to see your business listed on this page?

 If your business provides an interesting product or service to pilots, flight crews, aircraft, or users of the Warner Springs Gliderport, you should consider listing it here.  To start the listing process, click on the button below
 
Add a business
 

Other Pages about Warner Springs Gliderport

www.agcsc.org/warner_springs_info.html
 
Update a link
 
Copyright © AirNav, LLC. All rights reserved. Privacy Policy  Contact